WetterOnline ( http://www.wetteronline.de )

Wetter aktuell Perleberg

Aktuelles Wetter: Seehausen (23m)

6-stündlich | Neueste Meldungen
Ortszeit Temperatur Wetter
So, 24.03. 19:00 4.9° C leicht bewölkt
So, 24.03. 13:00 9.8° C bedeckt
So, 24.03. 7:00 1.3° C bedeckt
So, 24.03. 1:00 3.7° C wolkig
Sa, 23.03. 19:00 9.6° C bedeckt
Sa, 23.03. 13:00 10.1° C bewölkt
Sa, 23.03. 7:00 3.2° C Nebel
Sa, 23.03. 1:00 5.2° C wolkenlos
Ortszeit Temperatur Wetter
So, 24.03. 20:30 2.4° C fast wolkenlos
So, 24.03. 20:20 2.4° C fast wolkenlos
So, 24.03. 20:10 2.4° C leicht bewölkt
So, 24.03. 20:00 3.0° C wolkig
So, 24.03. 19:50 3.0° C wolkig
So, 24.03. 19:40 3.1° C leicht bewölkt
So, 24.03. 19:30 4.8° C leicht bewölkt
So, 24.03. 19:00 4.9° C leicht bewölkt
So, 24.03. 18:30 7.3° C wolkenlos
So, 24.03. 18:00 8.5° C wolkenlos
So, 24.03. 17:30 8.9° C bedeckt
Ortszeit Relative Feuchte Sichtweite
So, 24.03. 19:00 76% 50 km
So, 24.03. 13:00 49% 45 km
So, 24.03. 7:00 96% 12 km
So, 24.03. 1:00 89% 19 km
Sa, 23.03. 19:00 82% 5.0 km
Sa, 23.03. 13:00 76% 7 km
Sa, 23.03. 7:00 98% 0.2 km
Sa, 23.03. 1:00 97% 1.9 km
Ortszeit Relative Feuchte Sichtweite
So, 24.03. 20:30 84% 40 km
So, 24.03. 20:20 84% -
So, 24.03. 20:10 84% -
So, 24.03. 20:00 82% 45 km
So, 24.03. 19:50 82% -
So, 24.03. 19:40 82% -
So, 24.03. 19:30 75% 45 km
So, 24.03. 19:00 76% 50 km
So, 24.03. 18:30 65% 40 km
So, 24.03. 18:00 59% 50 km
So, 24.03. 17:30 58% 50 km
Ortszeit Niederschlagsmenge Niederschlagsart
So, 24.03. 19:00 0.0 l/m2 in 12 Std. -
So, 24.03. 13:00 0.0 l/m2 in 6 Std. -
So, 24.03. 7:00 0.0 l/m2 in 12 Std. -
So, 24.03. 1:00 0.0 l/m2 in 6 Std. -
Sa, 23.03. 19:00 0.0 l/m2 in 12 Std. -
Sa, 23.03. 13:00 0.0 l/m2 in 6 Std. -
Sa, 23.03. 7:00 0.0 l/m2 in 12 Std. -
Sa, 23.03. 1:00 0.0 l/m2 in 6 Std. -
Ortszeit Niederschlagsmenge Niederschlagsart
So, 24.03. 20:30 0.0 l/m2 in 1 Std. -
So, 24.03. 20:20 keine Meldung -
So, 24.03. 20:10 keine Meldung -
So, 24.03. 20:00 0.0 l/m2 in 1 Std. -
So, 24.03. 19:50 keine Meldung -
So, 24.03. 19:40 keine Meldung -
So, 24.03. 19:30 0.0 l/m2 in 1 Std. -
So, 24.03. 19:00 0.0 l/m2 in 1 Std. -
So, 24.03. 18:30 0.0 l/m2 in 1 Std. -
So, 24.03. 18:00 0.0 l/m2 in 1 Std. -
So, 24.03. 17:30 0.0 l/m2 in 1 Std. -
Ortszeit Stärke Spitze Richtung
km/h Bft. km/h Grad Sektor
So, 24.03. 19:00 7 2 22 290° W
So, 24.03. 13:00 7 2 14 320° NW
So, 24.03. 7:00 7 2 14 270° W
So, 24.03. 1:00 11 2 18 300° NW
Sa, 23.03. 19:00 15 3 30 300° NW
Sa, 23.03. 13:00 17 3 33 310° NW
Sa, 23.03. 7:00 4 1 11 320° NW
Sa, 23.03. 1:00 7 2 25 130° SO
Ortszeit Stärke Spitze Richtung
km/h Bft. km/h Grad Sektor
So, 24.03. 20:30 7 2 7 250° W
So, 24.03. 20:20 7 2 - 250° W
So, 24.03. 20:10 7 2 - 250° W
So, 24.03. 20:00 7 2 11 260° W
So, 24.03. 19:50 7 2 - 260° W
So, 24.03. 19:40 6 1 - 260° W
So, 24.03. 19:30 4 1 11 280° W
So, 24.03. 19:00 7 2 11 290° W
So, 24.03. 18:30 4 1 11 280° W
So, 24.03. 18:00 11 2 18 320° NW
So, 24.03. 17:30 9 2 15 310° NW
Ortszeit Untergrenze Bedeckung Gattung
total tief tief mittel hoch
So, 24.03. 19:00 4200 m 3/8 3/8 - - -
So, 24.03. 13:00 3300 m 8/8 8/8 - - -
So, 24.03. 7:00 3600 m 8/8 8/8 - - -
So, 24.03. 1:00 6600 m 8/8 3/8 - - -
Sa, 23.03. 19:00 720 m 8/8 8/8 - - -
Sa, 23.03. 13:00 420 m 7/8 7/8 - - -
Sa, 23.03. 7:00 <30 m 8/8 0/8 - - -
Sa, 23.03. 1:00 - 0/8 0/8 - - -
Ortszeit Bedeckungsgrad in Achtel und Wolkenuntergrenze
So, 24.03. 20:30 1(4200m)
So, 24.03. 20:20 1(4200m)
So, 24.03. 20:10 4(4200m)
So, 24.03. 20:00 6(4200m)
So, 24.03. 19:50 6(4200m)
So, 24.03. 19:40 4(4500m)
So, 24.03. 19:30 3(4500m)
So, 24.03. 19:00 3(4200m)
So, 24.03. 18:30 keine Wolken
So, 24.03. 18:00 keine Wolken
So, 24.03. 17:30 8(3000m)
Ortszeit Luftdruck NN (hPa) Tendenz (hPa in 3 Std.)
So, 24.03. 19:00 1022 - 1,7
So, 24.03. 13:00 1026 - 2,3
So, 24.03. 7:00 1029 - 0,6
So, 24.03. 1:00 1030 - 0,2
Sa, 23.03. 19:00 1029 + 0,9
Sa, 23.03. 13:00 1028 + 1,2
Sa, 23.03. 7:00 1026 + 0,3
Sa, 23.03. 1:00 1027 - 1,7
Ortszeit Luftdruck NN (hPa) Tendenz (hPa in 3 Std.)
So, 24.03. 20:30 1021 - 1,4
So, 24.03. 20:20 1021 keine Meldung
So, 24.03. 20:10 1021 keine Meldung
So, 24.03. 20:00 1021 - 1,4
So, 24.03. 19:50 1021 keine Meldung
So, 24.03. 19:40 1022 keine Meldung
So, 24.03. 19:30 1022 - 1,4
So, 24.03. 19:00 1022 - 1,7
So, 24.03. 18:30 1022 - 1,9
So, 24.03. 18:00 1022 - 1,7
So, 24.03. 17:30 1023 - 1,7
Ortszeit Schneehöhe (cm)
So, 24.03. 19:00 0
So, 24.03. 13:00 0
So, 24.03. 7:00 0
So, 24.03. 1:00 0
Sa, 23.03. 19:00 0
Sa, 23.03. 13:00 0
Sa, 23.03. 7:00 0
Sa, 23.03. 1:00 0
Ortszeit Schneehöhe (cm)
So, 24.03. 20:30 0
So, 24.03. 20:20 0
So, 24.03. 20:10 0
So, 24.03. 20:00 0
So, 24.03. 19:50 0
So, 24.03. 19:40 0
So, 24.03. 19:30 0
So, 24.03. 19:00 0
So, 24.03. 18:30 0
So, 24.03. 18:00 0
So, 24.03. 17:30 0
Link zu dieser Seite / Seite empfehlen

Das Wetter in ...